createdAt,value
2023-03-17T00:00:37.050Z,65.93
2023-03-17T00:03:32.242Z,66.43
2023-03-17T00:06:31.067Z,66.71
2023-03-17T00:09:31.057Z,66.73
2023-03-17T00:12:13.255Z,66.85
2023-03-17T00:15:01.047Z,67.01
2023-03-17T00:17:35.431Z,67.16
2023-03-17T00:20:33.059Z,67.20
2023-03-17T00:23:14.967Z,67.24
2023-03-17T00:26:04.061Z,67.63
2023-03-17T00:28:45.044Z,67.80
2023-03-17T00:31:29.757Z,68.51
2023-03-17T00:34:11.061Z,68.68
2023-03-17T00:36:57.268Z,68.51
2023-03-17T00:39:38.256Z,68.90
2023-03-17T00:42:19.170Z,69.23
2023-03-17T00:45:00.071Z,69.27
2023-03-17T00:47:41.152Z,69.21
2023-03-17T00:50:26.259Z,69.19
2023-03-17T00:53:14.258Z,69.46
2023-03-17T00:55:56.262Z,69.69
2023-03-17T00:58:47.033Z,69.86
2023-03-17T01:01:21.508Z,69.76
2023-03-17T01:04:09.038Z,69.56
2023-03-17T01:06:57.040Z,69.08
2023-03-17T01:09:45.047Z,69.07
2023-03-17T01:12:26.509Z,69.07
2023-03-17T01:15:08.051Z,68.85
2023-03-17T01:17:50.367Z,68.82
2023-03-17T01:20:37.046Z,68.70
2023-03-17T01:23:19.169Z,68.86
2023-03-17T01:26:00.066Z,69.27
2023-03-17T01:28:41.238Z,69.37
2023-03-17T01:31:24.295Z,69.23
2023-03-17T01:34:06.773Z,69.58
2023-03-17T01:36:55.242Z,69.71
2023-03-17T01:39:37.230Z,69.77
2023-03-17T01:42:32.257Z,69.96
2023-03-17T01:45:59.273Z,70.19
2023-03-17T01:48:42.050Z,70.26
2023-03-17T01:51:51.032Z,70.62
2023-03-17T01:55:07.048Z,70.44
2023-03-17T01:58:04.033Z,70.29
2023-03-17T02:00:53.066Z,70.48
2023-03-17T02:03:28.342Z,70.52
2023-03-17T02:06:23.023Z,70.48
2023-03-17T02:09:18.033Z,70.37
2023-03-17T02:12:07.026Z,70.35
2023-03-17T02:14:41.648Z,70.83
2023-03-17T02:17:31.083Z,71.22
2023-03-17T02:20:22.146Z,71.26
2023-03-17T02:23:11.038Z,71.39
2023-03-17T02:25:53.144Z,71.39
2023-03-17T02:28:37.036Z,71.07
2023-03-17T02:31:19.158Z,70.97
2023-03-17T02:34:01.058Z,70.67
2023-03-17T02:36:42.421Z,70.62
2023-03-17T02:39:24.026Z,70.30
2023-03-17T02:42:12.040Z,70.45
2023-03-17T02:44:46.394Z,71.01
2023-03-17T02:47:35.027Z,71.12
2023-03-17T02:50:12.345Z,71.19
2023-03-17T02:53:00.039Z,71.20
2023-03-17T02:55:34.389Z,70.94
2023-03-17T02:58:22.029Z,71.14
2023-03-17T03:00:56.749Z,71.43
2023-03-17T03:03:45.027Z,71.35
2023-03-17T03:06:33.030Z,71.27
2023-03-17T03:09:29.014Z,71.59
2023-03-17T03:12:19.029Z,71.68
2023-03-17T03:14:54.223Z,71.70
2023-03-17T03:17:42.034Z,72.07
2023-03-17T03:20:17.140Z,72.05
2023-03-17T03:23:05.232Z,72.25
2023-03-17T03:25:46.524Z,72.76
2023-03-17T03:28:28.230Z,72.83
2023-03-17T03:31:09.401Z,72.49
2023-03-17T03:33:52.036Z,72.59
2023-03-17T03:36:33.520Z,72.71
2023-03-17T03:39:16.034Z,72.55
2023-03-17T03:42:05.009Z,72.72
2023-03-17T03:44:39.565Z,73.08
2023-03-17T03:47:27.277Z,73.02
2023-03-17T03:50:02.626Z,73.35
2023-03-17T03:52:51.025Z,73.73
2023-03-17T03:55:25.658Z,73.81
2023-03-17T03:58:15.030Z,73.75
2023-03-17T04:00:56.211Z,73.72
2023-03-17T04:03:37.555Z,73.71
2023-03-17T04:06:19.016Z,73.79
2023-03-17T04:09:07.019Z,74.04
2023-03-17T04:11:41.680Z,74.18
2023-03-17T04:14:30.200Z,74.57
2023-03-17T04:17:05.643Z,74.62
2023-03-17T04:19:54.219Z,74.19
2023-03-17T04:22:35.996Z,74.12
2023-03-17T04:25:21.829Z,74.52
2023-03-17T04:28:03.244Z,74.54
2023-03-17T04:30:45.372Z,74.25
2023-03-17T04:33:27.032Z,74.27
2023-03-17T04:36:08.211Z,74.26
2023-03-17T04:38:49.080Z,74.03
2023-03-17T04:41:30.166Z,74.02
2023-03-17T04:44:11.075Z,73.79
2023-03-17T04:46:59.038Z,73.44
2023-03-17T04:49:40.014Z,73.43
2023-03-17T04:52:28.038Z,73.13
2023-03-17T04:55:09.030Z,72.89
2023-03-17T04:57:51.255Z,72.72
2023-03-17T05:00:32.215Z,72.69
2023-03-17T05:03:26.684Z,72.73
2023-03-17T05:06:17.034Z,72.36
2023-03-17T05:09:05.020Z,72.17
2023-03-17T05:11:41.870Z,72.34
2023-03-17T05:14:30.149Z,72.27
2023-03-17T05:17:05.189Z,72.05
2023-03-17T05:19:54.238Z,72.09
2023-03-17T05:22:36.230Z,72.19
2023-03-17T05:25:24.161Z,72.00
2023-03-17T05:28:05.340Z,72.04
2023-03-17T05:30:47.291Z,72.11
2023-03-17T05:33:36.224Z,72.25
2023-03-17T05:36:18.087Z,72.09
2023-03-17T05:38:59.263Z,71.90
2023-03-17T05:41:41.033Z,71.89
2023-03-17T05:44:22.164Z,72.04
2023-03-17T05:47:03.033Z,72.16
2023-03-17T05:49:44.168Z,72.29
2023-03-17T05:52:25.021Z,72.03
2023-03-17T05:55:06.212Z,71.67
2023-03-17T05:57:48.011Z,71.57
2023-03-17T06:00:36.000Z,71.26
2023-03-17T06:03:10.479Z,70.85
2023-03-17T06:05:58.010Z,70.72
2023-03-17T06:08:53.210Z,70.62
2023-03-17T06:11:41.031Z,70.24
2023-03-17T06:14:16.162Z,69.99
2023-03-17T06:17:04.033Z,69.91
2023-03-17T06:19:48.319Z,69.90
2023-03-17T06:22:37.016Z,69.88
2023-03-17T06:25:12.135Z,69.70
2023-03-17T06:28:02.384Z,69.27
2023-03-17T06:30:41.352Z,68.85
2023-03-17T06:33:28.998Z,68.53
2023-03-17T06:36:10.066Z,67.89
2023-03-17T06:38:58.013Z,67.57
2023-03-17T06:41:33.593Z,66.92
2023-03-17T06:44:21.028Z,66.46
2023-03-17T06:46:56.271Z,66.35
2023-03-17T06:49:44.213Z,66.19
2023-03-17T06:52:20.323Z,65.84
2023-03-17T06:55:08.220Z,65.76
2023-03-17T06:57:51.321Z,66.04
2023-03-17T07:00:47.020Z,66.32
2023-03-17T07:03:36.242Z,66.03
2023-03-17T07:06:12.125Z,65.62
2023-03-17T07:09:02.197Z,65.34
2023-03-17T07:11:50.000Z,65.11
2023-03-17T07:14:24.516Z,64.48
2023-03-17T07:17:12.034Z,64.19
2023-03-17T07:19:46.572Z,64.42
2023-03-17T07:22:34.031Z,64.87
2023-03-17T07:25:09.898Z,64.62
2023-03-17T07:27:59.019Z,63.55
2023-03-17T07:30:33.968Z,63.39
2023-03-17T07:33:22.030Z,63.07
2023-03-17T07:36:03.090Z,62.41
2023-03-17T07:38:44.123Z,62.68
2023-03-17T07:41:25.005Z,62.59
2023-03-17T07:44:06.156Z,62.39
2023-03-17T07:46:47.029Z,61.91
2023-03-17T07:49:40.900Z,61.49
2023-03-17T07:52:23.217Z,61.49
2023-03-17T07:55:11.200Z,61.03
2023-03-17T07:58:06.284Z,60.92
2023-03-17T08:00:54.997Z,60.49
2023-03-17T08:03:41.771Z,60.72
2023-03-17T08:06:36.996Z,60.00
2023-03-17T08:09:32.002Z,59.86
2023-03-17T08:12:19.995Z,59.57
2023-03-17T08:14:55.677Z,58.91
2023-03-17T08:17:46.288Z,58.86
2023-03-17T08:20:22.029Z,58.81
2023-03-17T08:23:10.053Z,58.73
2023-03-17T08:25:45.160Z,58.58
2023-03-17T08:28:33.988Z,57.89
2023-03-17T08:31:27.078Z,57.71
2023-03-17T08:34:23.073Z,58.04
2023-03-17T08:37:11.539Z,58.00
2023-03-17T08:39:46.218Z,57.04
2023-03-17T08:42:33.986Z,56.65
2023-03-17T08:45:17.011Z,56.54
2023-03-17T08:47:58.871Z,55.76
2023-03-17T08:50:46.977Z,55.62
2023-03-17T08:53:22.257Z,55.02
2023-03-17T08:56:13.993Z,54.05
2023-03-17T08:58:49.381Z,53.57
2023-03-17T09:01:37.111Z,53.81
2023-03-17T09:04:11.468Z,53.30
2023-03-17T09:07:03.721Z,52.10
2023-03-17T09:09:58.991Z,51.68
2023-03-17T09:12:53.999Z,50.83
2023-03-17T09:15:42.046Z,50.25
2023-03-17T09:18:23.999Z,49.93
2023-03-17T09:21:12.993Z,49.73
2023-03-17T09:23:55.003Z,49.22
2023-03-17T09:26:49.991Z,48.35
2023-03-17T09:29:37.975Z,47.92
2023-03-17T09:32:13.205Z,47.77
2023-03-17T09:35:01.020Z,47.24
2023-03-17T09:37:43.026Z,47.03
2023-03-17T09:40:33.082Z,46.80
2023-03-17T09:43:23.997Z,46.87
2023-03-17T09:46:15.660Z,46.80
2023-03-17T09:49:06.199Z,45.68
2023-03-17T09:51:46.995Z,45.05
2023-03-17T09:54:39.976Z,45.25
2023-03-17T09:57:38.024Z,45.41
2023-03-17T10:00:23.110Z,44.81
2023-03-17T10:03:17.029Z,44.74
2023-03-17T10:05:52.206Z,44.45
2023-03-17T10:08:41.993Z,44.34
2023-03-17T10:11:33.119Z,43.68
2023-03-17T10:14:41.976Z,43.65
2023-03-17T10:17:34.001Z,42.85
2023-03-17T10:20:31.007Z,41.78
2023-03-17T10:23:09.129Z,42.04
2023-03-17T10:25:57.061Z,42.12
2023-03-17T10:28:41.990Z,41.81
2023-03-17T10:31:46.047Z,40.96
2023-03-17T10:34:38.259Z,40.32
2023-03-17T10:37:27.511Z,39.64
2023-03-17T10:40:11.976Z,39.55
2023-03-17T10:43:01.993Z,39.70
2023-03-17T10:45:48.000Z,38.78
2023-03-17T10:48:29.121Z,39.25
2023-03-17T10:51:16.985Z,38.03
2023-03-17T10:54:00.096Z,38.42
2023-03-17T10:56:43.989Z,38.13
2023-03-17T10:59:35.106Z,37.74
2023-03-17T11:02:25.987Z,38.19
2023-03-17T11:05:19.970Z,37.85
2023-03-17T11:08:17.989Z,37.30
2023-03-17T11:11:03.407Z,36.07
2023-03-17T11:13:45.083Z,36.26
2023-03-17T11:16:38.079Z,36.78
2023-03-17T11:19:15.634Z,35.88
2023-03-17T11:22:16.991Z,34.60
2023-03-17T11:25:16.079Z,34.65
2023-03-17T11:28:22.257Z,35.18
2023-03-17T11:31:22.072Z,35.67
2023-03-17T11:34:20.993Z,35.63
2023-03-17T11:37:39.996Z,35.06
2023-03-17T11:40:49.001Z,33.95
2023-03-17T11:43:26.164Z,33.12
2023-03-17T11:46:22.172Z,33.20
2023-03-17T11:48:57.392Z,33.22
2023-03-17T11:51:53.970Z,33.45
2023-03-17T11:54:54.250Z,33.79
2023-03-17T11:58:05.982Z,33.24
2023-03-17T12:01:00.995Z,33.18
2023-03-17T12:04:05.054Z,32.45
2023-03-17T12:07:06.002Z,31.70
2023-03-17T12:10:17.979Z,32.04
2023-03-17T12:13:07.351Z,32.17
2023-03-17T12:16:00.047Z,32.31
2023-03-17T12:18:46.453Z,31.75
2023-03-17T12:21:45.979Z,31.43
2023-03-17T12:24:38.980Z,31.59
2023-03-17T12:27:29.148Z,30.81
2023-03-17T12:30:35.970Z,30.13
2023-03-17T12:33:21.925Z,30.07
2023-03-17T12:36:12.000Z,29.57
2023-03-17T12:39:16.998Z,30.29
2023-03-17T12:42:23.963Z,30.09
2023-03-17T12:45:08.241Z,29.69
2023-03-17T12:48:34.027Z,29.38
2023-03-17T12:51:42.989Z,29.63
2023-03-17T12:54:31.182Z,30.25
2023-03-17T12:57:25.011Z,30.45
2023-03-17T13:00:12.262Z,29.87
2023-03-17T13:02:59.011Z,29.35
2023-03-17T13:05:46.982Z,29.89
2023-03-17T13:08:26.034Z,29.55
2023-03-17T13:11:42.987Z,29.42
2023-03-17T13:14:46.476Z,28.91
2023-03-17T13:17:36.962Z,28.13
2023-03-17T13:20:15.833Z,27.76
2023-03-17T13:23:22.964Z,26.98
2023-03-17T13:25:57.564Z,26.74
2023-03-17T13:28:47.969Z,26.19
2023-03-17T13:31:40.513Z,25.95
2023-03-17T13:34:27.972Z,25.51
2023-03-17T13:37:14.263Z,25.15
2023-03-17T13:40:17.986Z,24.56
2023-03-17T13:43:14.222Z,24.06
2023-03-17T13:46:01.976Z,23.83
2023-03-17T13:48:43.975Z,23.46
2023-03-17T13:51:56.415Z,23.08
2023-03-17T13:54:47.984Z,23.03
2023-03-17T13:57:41.006Z,22.49
2023-03-17T14:00:29.070Z,22.14
2023-03-17T14:03:32.133Z,21.60
2023-03-17T14:06:26.981Z,21.32
2023-03-17T14:09:29.964Z,21.20
2023-03-17T14:12:42.086Z,21.29
2023-03-17T14:15:40.199Z,21.69
2023-03-17T14:18:21.497Z,22.25
2023-03-17T14:21:12.985Z,22.74
2023-03-17T14:23:48.310Z,22.66
2023-03-17T14:26:37.981Z,23.08
2023-03-17T14:29:13.092Z,23.52
2023-03-17T14:32:11.001Z,23.51
2023-03-17T14:34:53.277Z,24.03
2023-03-17T14:37:44.996Z,24.11
2023-03-17T14:40:30.151Z,24.44
2023-03-17T14:43:18.026Z,24.53
2023-03-17T14:46:04.166Z,24.68
2023-03-17T14:48:49.200Z,25.38
2023-03-17T14:51:41.098Z,26.14
2023-03-17T14:54:32.164Z,26.47
2023-03-17T14:57:23.035Z,26.72
2023-03-17T15:00:23.657Z,26.81
2023-03-17T15:03:14.035Z,26.84
2023-03-17T15:05:49.449Z,27.08
2023-03-17T15:08:55.133Z,27.63
2023-03-17T15:11:39.414Z,27.52
2023-03-17T15:14:34.035Z,27.74
2023-03-17T15:17:26.820Z,27.81
2023-03-17T15:20:21.082Z,27.89
2023-03-17T15:23:03.512Z,28.15
2023-03-17T15:25:53.104Z,28.40
2023-03-17T15:28:38.075Z,28.73
2023-03-17T15:31:24.217Z,28.96
2023-03-17T15:34:06.056Z,28.94
2023-03-17T15:36:47.784Z,29.05
2023-03-17T15:39:29.045Z,29.17
2023-03-17T15:42:18.497Z,29.21
2023-03-17T15:44:54.028Z,29.04
2023-03-17T15:47:47.020Z,28.43
2023-03-17T15:50:45.997Z,28.24
2023-03-17T15:53:35.096Z,28.48
2023-03-17T15:56:17.063Z,28.58
2023-03-17T15:59:05.019Z,28.88
2023-03-17T16:01:46.986Z,29.44
2023-03-17T16:04:28.030Z,29.87
2023-03-17T16:07:25.999Z,30.27
2023-03-17T16:10:28.093Z,30.60
2023-03-17T16:13:03.100Z,30.79
2023-03-17T16:15:54.068Z,31.17
2023-03-17T16:18:43.210Z,31.28
2023-03-17T16:21:30.988Z,31.74
2023-03-17T16:24:12.989Z,32.00
2023-03-17T16:27:09.986Z,32.43
2023-03-17T16:29:58.016Z,33.12
2023-03-17T16:32:40.056Z,33.65
2023-03-17T16:35:36.019Z,34.11
2023-03-17T16:38:43.650Z,34.58
2023-03-17T16:41:33.127Z,35.23
2023-03-17T16:44:22.983Z,35.78
2023-03-17T16:46:58.185Z,36.15
2023-03-17T16:49:46.087Z,36.74
2023-03-17T16:52:21.105Z,37.31
2023-03-17T16:55:08.994Z,37.47
2023-03-17T16:57:49.168Z,38.05
2023-03-17T17:00:37.996Z,38.58
2023-03-17T17:03:20.117Z,38.95
2023-03-17T17:06:07.997Z,39.12
2023-03-17T17:08:43.161Z,39.60
2023-03-17T17:11:30.978Z,39.77
2023-03-17T17:14:13.139Z,40.09
2023-03-17T17:17:01.016Z,40.44
2023-03-17T17:19:36.120Z,40.65
2023-03-17T17:22:24.412Z,40.73
2023-03-17T17:24:59.159Z,41.00
2023-03-17T17:27:48.989Z,41.38
2023-03-17T17:30:29.252Z,41.46
2023-03-17T17:33:18.063Z,41.58
2023-03-17T17:35:54.157Z,41.89
2023-03-17T17:38:42.005Z,42.09
2023-03-17T17:41:21.540Z,42.32
2023-03-17T17:44:08.966Z,42.42
2023-03-17T17:46:50.213Z,42.69
2023-03-17T17:49:45.191Z,43.02
2023-03-17T17:52:33.069Z,43.22
2023-03-17T17:55:09.101Z,43.63
2023-03-17T17:57:58.812Z,43.98
2023-03-17T18:00:49.075Z,44.43
2023-03-17T18:03:25.494Z,44.66
2023-03-17T18:06:14.202Z,45.18
2023-03-17T18:09:02.971Z,45.52
2023-03-17T18:11:51.006Z,45.91
2023-03-17T18:14:27.922Z,46.14
2023-03-17T18:17:15.992Z,46.26
2023-03-17T18:19:53.187Z,46.66
2023-03-17T18:22:42.148Z,47.05
2023-03-17T18:25:24.988Z,47.40
2023-03-17T18:28:12.977Z,47.64
2023-03-17T18:30:48.180Z,47.80
2023-03-17T18:33:37.178Z,47.98
2023-03-17T18:36:14.089Z,48.08
2023-03-17T18:39:02.933Z,48.33
2023-03-17T18:41:39.082Z,48.54
2023-03-17T18:44:31.976Z,48.68
2023-03-17T18:47:13.962Z,48.83
2023-03-17T18:50:09.019Z,48.98
2023-03-17T18:52:57.011Z,49.15
2023-03-17T18:55:32.109Z,49.12
2023-03-17T18:58:19.983Z,49.48
2023-03-17T19:01:08.226Z,49.54
2023-03-17T19:03:55.992Z,50.01
2023-03-17T19:06:37.990Z,50.06
2023-03-17T19:09:32.971Z,50.18
2023-03-17T19:12:21.028Z,50.33
2023-03-17T19:14:56.555Z,50.41
2023-03-17T19:17:45.964Z,50.52
2023-03-17T19:20:23.859Z,50.62
2023-03-17T19:23:16.983Z,50.44
2023-03-17T19:26:01.136Z,50.66
2023-03-17T19:28:56.125Z,50.76
2023-03-17T19:31:51.970Z,50.84
2023-03-17T19:34:39.959Z,51.12
2023-03-17T19:37:27.933Z,51.25
2023-03-17T19:40:24.960Z,51.35
2023-03-17T19:43:20.159Z,51.44
2023-03-17T19:46:04.193Z,51.51
2023-03-17T19:48:51.973Z,51.62
2023-03-17T19:51:33.980Z,51.68
2023-03-17T19:54:31.961Z,51.75
2023-03-17T19:57:22.187Z,51.76
2023-03-17T20:00:03.951Z,51.70
2023-03-17T20:02:52.972Z,51.78
2023-03-17T20:05:43.968Z,51.96
2023-03-17T20:08:25.958Z,52.10
2023-03-17T20:11:07.166Z,52.17
2023-03-17T20:13:47.944Z,52.32
2023-03-17T20:16:33.751Z,52.43
2023-03-17T20:19:14.963Z,52.59
2023-03-17T20:21:58.664Z,52.59
2023-03-17T20:24:40.950Z,52.60
2023-03-17T20:27:29.962Z,52.69
2023-03-17T20:30:15.159Z,52.65
2023-03-17T20:32:56.768Z,52.68
2023-03-17T20:35:39.008Z,52.84
2023-03-17T20:38:21.486Z,52.95
2023-03-17T20:41:24.970Z,52.79
2023-03-17T20:44:06.520Z,52.88
2023-03-17T20:46:48.996Z,52.89
2023-03-17T20:49:36.971Z,52.94
2023-03-17T20:52:21.761Z,52.94
2023-03-17T20:55:12.981Z,53.05
2023-03-17T20:58:01.011Z,53.09
2023-03-17T21:00:36.147Z,52.91
2023-03-17T21:03:28.002Z,53.01
2023-03-17T21:06:09.951Z,53.16
2023-03-17T21:09:04.965Z,53.25
2023-03-17T21:11:59.976Z,53.18
2023-03-17T21:14:49.053Z,53.18
2023-03-17T21:17:24.793Z,53.17
2023-03-17T21:20:14.986Z,53.33
2023-03-17T21:22:50.106Z,53.46
2023-03-17T21:25:37.935Z,53.66
2023-03-17T21:28:20.051Z,53.68
2023-03-17T21:31:15.183Z,53.54
2023-03-17T21:34:02.963Z,53.69
2023-03-17T21:36:38.846Z,53.99
2023-03-17T21:39:29.603Z,54.30
2023-03-17T21:42:04.139Z,54.57
2023-03-17T21:44:52.945Z,54.72
2023-03-17T21:47:32.043Z,55.08
2023-03-17T21:50:20.067Z,55.15
2023-03-17T21:52:55.093Z,55.32
2023-03-17T21:55:42.942Z,55.49
2023-03-17T21:58:25.111Z,55.63
2023-03-17T22:01:19.976Z,55.77
2023-03-17T22:04:07.948Z,55.98
2023-03-17T22:06:43.556Z,56.20
2023-03-17T22:09:32.194Z,56.32
2023-03-17T22:12:07.392Z,56.36
2023-03-17T22:14:54.952Z,56.48
2023-03-17T22:17:30.325Z,56.48
2023-03-17T22:20:20.017Z,56.50
2023-03-17T22:22:55.088Z,56.59
2023-03-17T22:25:43.948Z,56.54
2023-03-17T22:28:19.197Z,56.48
2023-03-17T22:31:07.225Z,56.52
2023-03-17T22:33:49.075Z,56.55
2023-03-17T22:36:43.924Z,56.70
2023-03-17T22:39:31.947Z,56.72
2023-03-17T22:42:07.064Z,56.90
2023-03-17T22:44:55.949Z,56.84
2023-03-17T22:47:33.180Z,57.07
2023-03-17T22:50:20.936Z,57.08
2023-03-17T22:53:02.943Z,57.24
2023-03-17T22:55:57.932Z,57.55
2023-03-17T22:58:46.942Z,57.69
2023-03-17T23:01:32.019Z,57.92
2023-03-17T23:04:20.944Z,57.98
2023-03-17T23:06:56.531Z,58.04
2023-03-17T23:09:48.063Z,58.27
2023-03-17T23:12:25.177Z,58.35
2023-03-17T23:15:14.057Z,58.51
2023-03-17T23:17:49.154Z,58.46
2023-03-17T23:20:36.934Z,58.64
2023-03-17T23:23:12.730Z,58.78
2023-03-17T23:26:01.940Z,58.80
2023-03-17T23:28:37.052Z,58.80
2023-03-17T23:31:26.022Z,58.89
2023-03-17T23:34:07.924Z,59.02
2023-03-17T23:37:02.927Z,59.23
2023-03-17T23:39:50.923Z,59.40
2023-03-17T23:42:33.103Z,59.44
2023-03-17T23:45:15.781Z,59.47
2023-03-17T23:48:05.901Z,59.59
2023-03-17T23:51:03.925Z,59.51
2023-03-17T23:53:52.967Z,59.66
2023-03-17T23:56:28.059Z,59.67
2023-03-17T23:59:16.926Z,59.85
